Time;durP1;ratioP1;P1;durP2;ratioP2;P2;SDS_P1;SDS_P2;PMS_P1;PMS_P2;Temp;Humidity;BMP_temperature;BMP_pressure;BME280_temperature;BME280_humidity;BME280_pressure;Samples;Min_cycle;Max_cycle;Signal;HPM_P1;HPM_P2
2023/07/16 00:00:43;;;;;;;;;9.33;7.00;;;;;22.20;40.45;100854.78;4959148;28;45437;-64
2023/07/16 00:03:09;;;;;;;;;7.33;6.67;;;;;22.17;40.40;100861.13;4957245;28;45373;-64
2023/07/16 00:05:37;;;;;;;;;8.67;7.00;;;;;22.06;40.78;100852.72;4966815;28;46211;-64
2023/07/16 00:08:03;;;;;;;;;8.67;6.33;;;;;21.96;41.36;100862.06;4977114;28;45440;-65
2023/07/16 00:10:29;;;;;;;;;12.00;9.00;;;;;21.96;41.41;100862.06;4976609;28;45436;-66
2023/07/16 00:12:54;;;;;;;;;9.67;7.00;;;;;21.97;41.33;100869.13;4977559;28;45480;-66
2023/07/16 00:15:20;;;;;;;;;8.00;6.33;;;;;22.00;41.40;100869.00;4977586;28;45397;-67
2023/07/16 00:17:46;;;;;;;;;13.33;7.67;;;;;22.01;41.47;100862.72;4979597;28;45432;-69
2023/07/16 00:20:11;;;;;;;;;7.33;6.33;;;;;21.94;41.91;100866.59;4972740;28;45434;-67
2023/07/16 00:22:38;;;;;;;;;7.67;6.33;;;;;21.91;41.98;100870.28;4962618;28;45629;-69
2023/07/16 00:25:05;;;;;;;;;6.67;5.00;;;;;21.75;42.38;100869.19;4961012;28;46125;-65
2023/07/16 00:27:31;;;;;;;;;10.00;6.00;;;;;21.76;42.60;100865.59;4960316;28;45362;-65
2023/07/16 00:29:56;;;;;;;;;5.67;5.67;;;;;21.75;42.64;100871.84;4960155;28;45464;-65
2023/07/16 00:32:22;;;;;;;;;10.00;7.33;;;;;21.75;42.75;100877.19;4960018;28;45401;-66
2023/07/16 00:34:48;;;;;;;;;8.00;7.00;;;;;21.72;42.66;100866.66;4963415;28;45508;-66
2023/07/16 00:37:13;;;;;;;;;5.00;2.00;;;;;21.72;42.96;100877.31;4960489;28;45407;-65
2023/07/16 00:39:39;;;;;;;;;10.00;7.33;;;;;21.69;43.00;100865.00;4961217;28;45353;-66
2023/07/16 00:42:04;;;;;;;;;9.67;6.00;;;;;21.78;43.20;100877.03;4960327;28;45547;-65
2023/07/16 00:44:30;;;;;;;;;9.67;7.00;;;;;21.56;43.01;100832.63;4959875;28;46336;-65
2023/07/16 00:46:56;;;;;;;;;7.67;7.67;;;;;21.78;43.07;100877.03;4959830;28;45432;-65
2023/07/16 00:49:24;;;;;;;;;5.67;5.67;;;;;21.81;42.64;100885.78;4960044;28;45487;-65
2023/07/16 00:51:51;;;;;;;;;6.33;6.33;;;;;21.76;43.21;100877.13;4959941;28;45435;-66
2023/07/16 00:54:17;;;;;;;;;7.00;6.00;;;;;21.82;43.26;100878.66;4969581;28;45508;-65
2023/07/16 00:56:43;;;;;;;;;10.33;5.67;;;;;21.77;43.20;100884.19;4974182;28;45344;-65
2023/07/16 00:59:08;;;;;;;;;12.00;8.67;;;;;21.70;43.35;100884.50;4963518;28;45336;-65
2023/07/16 01:01:34;;;;;;;;;6.67;6.67;;;;;21.50;43.65;100874.69;4979232;28;45455;-64
2023/07/16 01:04:00;;;;;;;;;7.67;5.33;;;;;21.52;43.75;100876.38;4979069;28;46503;-65
2023/07/16 01:06:49;;;;;;;;;8.33;7.00;;;;;21.49;43.74;100884.47;4977778;28;45361;-65
2023/07/16 01:09:19;;;;;;;;;6.00;6.00;;;;;21.49;44.01;100892.47;4976111;28;45317;-65
2023/07/16 01:11:46;;;;;;;;;9.00;6.00;;;;;21.47;44.10;100886.31;4979095;28;45456;-66
2023/07/16 01:14:17;;;;;;;;;6.33;5.67;;;;;21.54;44.02;100892.28;4941270;28;45338;-66
2023/07/16 01:16:43;;;;;;;;;8.00;7.00;;;;;21.47;44.08;100880.13;4955005;28;45468;-66
2023/07/16 01:19:09;;;;;;;;;12.00;7.33;;;;;21.52;44.17;100892.34;4945553;28;45534;-65
2023/07/16 01:22:10;;;;;;;;;10.33;6.33;;;;;21.47;44.30;100901.44;4979847;28;45375;-65
2023/07/16 01:24:45;;;;;;;;;8.33;7.00;;;;;21.42;44.65;100906.97;4975030;28;45387;-66
2023/07/16 01:27:38;;;;;;;;;8.00;8.00;;;;;21.43;44.40;100911.38;4977893;28;45455;-66
2023/07/16 01:30:08;;;;;;;;;7.00;6.33;;;;;21.39;45.04;100907.94;4962495;28;45266;-67
2023/07/16 01:32:37;;;;;;;;;4.33;4.33;;;;;21.45;44.77;100912.19;4959322;28;45590;-66
2023/07/16 01:35:05;;;;;;;;;6.33;6.33;;;;;21.46;44.59;100913.03;4959776;28;46345;-66
2023/07/16 01:37:31;;;;;;;;;14.00;8.67;;;;;21.43;44.78;100907.81;4959618;28;45398;-68
2023/07/16 01:39:57;;;;;;;;;8.67;8.00;;;;;21.43;44.94;100907.81;4960455;28;45557;-67
2023/07/16 01:42:22;;;;;;;;;8.67;6.33;;;;;21.43;45.04;100911.38;4960267;28;45848;-67
2023/07/16 01:44:48;;;;;;;;;10.00;8.00;;;;;21.49;45.15;100911.09;4960517;28;45460;-66
2023/07/16 01:47:23;;;;;;;;;9.67;8.00;;;;;21.54;45.33;100918.91;4968311;28;45455;-66
2023/07/16 01:49:49;;;;;;;;;9.67;8.00;;;;;21.59;44.67;100916.94;4968428;28;45443;-66
2023/07/16 01:52:15;;;;;;;;;9.67;7.33;;;;;21.62;44.88;100911.50;4958372;28;45490;-66
2023/07/16 01:54:40;;;;;;;;;7.33;5.67;;;;;21.69;44.59;100917.41;4959944;28;45512;-66
2023/07/16 01:57:06;;;;;;;;;8.00;6.33;;;;;21.72;44.42;100927.97;4959543;28;45370;-66
2023/07/16 01:59:33;;;;;;;;;16.00;8.33;;;;;21.72;44.68;100919.97;4958676;28;45480;-66
2023/07/16 02:01:59;;;;;;;;;4.67;4.67;;;;;21.78;44.37;100917.94;4959043;28;45492;-66
2023/07/16 02:04:24;;;;;;;;;7.33;7.33;;;;;21.81;44.56;100925.78;4958735;28;45943;-66
2023/07/16 02:06:50;;;;;;;;;8.67;7.33;;;;;21.77;44.23;100909.97;4958170;28;45387;-66
2023/07/16 02:09:16;;;;;;;;;9.33;8.33;;;;;21.70;44.55;100919.16;4958868;28;45497;-66
2023/07/16 02:11:42;;;;;;;;;11.67;8.00;;;;;21.52;44.95;100918.09;4963158;28;45563;-67
2023/07/16 02:14:07;;;;;;;;;8.67;7.00;;;;;21.45;45.13;100916.63;4962047;28;46650;-65
2023/07/16 02:16:33;;;;;;;;;7.33;6.33;;;;;21.23;45.50;100906.78;4958393;28;45398;-66
2023/07/16 02:18:59;;;;;;;;;13.00;7.00;;;;;21.11;45.97;100920.59;4957806;28;45459;-66
2023/07/16 02:21:24;;;;;;;;;7.67;5.67;;;;;20.89;46.38;100915.25;4962266;28;45302;-66
2023/07/16 02:23:50;;;;;;;;;10.00;6.33;;;;;20.77;46.53;100919.22;4956645;28;48096;-65
2023/07/16 02:26:16;;;;;;;;;10.00;7.67;;;;;20.74;46.98;100928.19;4959140;28;45640;-66
2023/07/16 02:28:41;;;;;;;;;7.67;6.67;;;;;20.66;47.07;100932.91;4958182;28;45552;-64
2023/07/16 02:31:07;;;;;;;;;10.67;8.33;;;;;20.63;46.75;100933.03;4961312;28;45477;-64
2023/07/16 02:33:32;;;;;;;;;9.67;7.67;;;;;20.69;46.73;100935.50;4961395;28;46066;-64
2023/07/16 02:35:58;;;;;;;;;8.00;6.00;;;;;20.75;46.87;100937.91;4959685;28;45285;-63
2023/07/16 02:38:23;;;;;;;;;8.00;6.00;;;;;20.73;46.75;100939.75;4957142;28;45507;-64
2023/07/16 02:40:49;;;;;;;;;8.00;6.67;;;;;20.72;46.79;100943.34;4958031;28;45496;-64
2023/07/16 02:43:15;;;;;;;;;10.00;7.00;;;;;20.61;47.04;100932.22;4958023;28;45539;-64
2023/07/16 02:45:41;;;;;;;;;8.67;5.67;;;;;20.53;47.15;100950.25;4958299;28;46038;-63
2023/07/16 02:48:07;;;;;;;;;9.00;6.00;;;;;20.28;47.72;100956.41;4957812;28;45534;-63
2023/07/16 02:50:37;;;;;;;;;5.33;5.00;;;;;20.21;47.95;100948.72;4969158;28;45479;-63
2023/07/16 02:53:06;;;;;;;;;11.00;8.00;;;;;20.11;48.47;100949.03;4958905;28;45424;-64
2023/07/16 02:55:37;;;;;;;;;8.00;6.33;;;;;19.91;48.46;100927.56;4957744;28;45455;-63
2023/07/16 02:58:04;;;;;;;;;10.33;7.33;;;;;19.94;49.02;100940.75;4972184;28;45483;-64
2023/07/16 03:00:33;;;;;;;;;7.67;7.00;;;;;19.82;49.14;100943.84;4958051;28;45446;-66
2023/07/16 03:02:59;;;;;;;;;11.33;8.33;;;;;19.90;49.44;100950.59;4958593;28;45336;-67
2023/07/16 03:05:26;;;;;;;;;10.00;8.00;;;;;19.92;49.35;100947.91;4957939;28;45856;-64
2023/07/16 03:07:52;;;;;;;;;10.00;7.00;;;;;20.03;49.30;100956.41;4957920;28;45319;-66
2023/07/16 03:10:17;;;;;;;;;7.00;5.67;;;;;19.99;49.38;100957.41;4959479;28;45295;-64
2023/07/16 03:12:43;;;;;;;;;6.33;6.33;;;;;20.04;49.32;100958.13;4958230;28;45451;-66
2023/07/16 03:15:09;;;;;;;;;9.00;9.00;;;;;20.01;49.25;100947.59;4957599;28;45485;-64
2023/07/16 03:17:34;;;;;;;;;10.00;8.67;;;;;20.05;49.60;100962.53;4969178;28;45479;-64
2023/07/16 03:20:01;;;;;;;;;5.00;4.33;;;;;20.03;49.46;100959.06;4977272;28;45502;-67
2023/07/16 03:22:29;;;;;;;;;9.67;7.67;;;;;19.94;50.03;100964.69;4960073;28;46401;-62
2023/07/16 03:24:54;;;;;;;;;6.67;5.33;;;;;19.85;50.09;100946.38;4960172;28;45697;-63
2023/07/16 03:27:20;;;;;;;;;7.67;6.67;;;;;19.77;49.97;100951.94;4958028;28;45781;-63
2023/07/16 03:29:45;;;;;;;;;7.00;6.67;;;;;19.78;50.14;100974.06;4958048;28;45249;-64
2023/07/16 03:32:11;;;;;;;;;11.00;7.67;;;;;19.74;50.11;100964.47;4958564;28;46180;-64
2023/07/16 03:34:36;;;;;;;;;9.00;6.67;;;;;19.81;50.34;100974.88;4957570;28;45801;-67
2023/07/16 03:37:06;;;;;;;;;9.67;8.33;;;;;19.87;50.07;100965.81;4957720;28;45310;-68
2023/07/16 03:39:31;;;;;;;;;9.33;7.33;;;;;19.80;49.75;100943.88;4957394;28;45400;-68
2023/07/16 03:41:57;;;;;;;;;13.33;9.00;;;;;19.82;50.04;100968.63;4957182;28;45559;-68
2023/07/16 03:44:23;;;;;;;;;6.67;6.67;;;;;19.71;50.43;100973.41;4957555;28;45412;-63
2023/07/16 03:46:48;;;;;;;;;10.67;9.00;;;;;19.65;50.82;100968.25;4957062;28;45432;-64
2023/07/16 03:49:14;;;;;;;;;8.00;7.33;;;;;19.71;50.61;100978.72;4957084;28;45429;-68
2023/07/16 03:51:41;;;;;;;;;7.00;7.00;;;;;19.72;50.49;100971.59;4960221;28;45520;-67
2023/07/16 03:54:07;;;;;;;;;8.33;7.33;;;;;19.68;50.63;100981.47;4960635;28;45530;-66
2023/07/16 03:56:33;;;;;;;;;9.00;8.00;;;;;19.71;50.76;100981.38;4960778;28;45476;-64
2023/07/16 03:58:58;;;;;;;;;9.00;7.00;;;;;19.57;50.66;100973.78;4961802;28;45370;-65
2023/07/16 04:01:27;;;;;;;;;7.67;5.00;;;;;19.70;50.48;100982.31;4961311;28;45739;-66
2023/07/16 04:03:53;;;;;;;;;11.00;9.33;;;;;19.60;50.85;100991.44;4960549;28;45372;-63
2023/07/16 04:06:18;;;;;;;;;8.67;7.33;;;;;19.44;51.39;100991.91;4960874;28;45357;-64
2023/07/16 04:08:44;;;;;;;;;10.00;7.33;;;;;19.34;51.47;100976.28;4960595;28;45325;-66
2023/07/16 04:11:09;;;;;;;;;6.00;6.00;;;;;19.47;51.21;100993.59;4960711;28;45522;-63
2023/07/16 04:13:34;;;;;;;;;8.67;7.33;;;;;19.55;51.12;100985.41;4960557;28;45424;-65
2023/07/16 04:16:00;;;;;;;;;9.00;7.33;;;;;19.45;51.73;100987.47;4960678;28;45421;-64
2023/07/16 04:18:26;;;;;;;;;9.67;8.33;;;;;19.30;52.02;100972.03;4960400;28;45564;-64
2023/07/16 04:20:52;;;;;;;;;10.67;6.67;;;;;19.41;51.71;100985.81;4960474;28;46021;-67
2023/07/16 04:23:18;;;;;;;;;12.67;10.33;;;;;19.34;51.69;100982.50;4960779;28;45328;-66
2023/07/16 04:25:43;;;;;;;;;9.67;7.00;;;;;19.34;51.74;100974.53;4959044;28;45392;-66
2023/07/16 04:28:10;;;;;;;;;11.33;8.33;;;;;19.48;51.60;101000.66;4960503;28;45480;-69
2023/07/16 04:30:37;;;;;;;;;10.67;10.00;;;;;19.54;51.79;101002.25;4960000;28;45468;-67
2023/07/16 04:33:03;;;;;;;;;10.00;6.67;;;;;19.54;51.59;101011.09;4958423;28;45438;-68
2023/07/16 04:35:28;;;;;;;;;11.00;8.33;;;;;19.41;51.93;101004.41;4961619;28;45295;-64
2023/07/16 04:37:54;;;;;;;;;7.33;6.00;;;;;19.30;52.08;100986.16;4961341;28;45400;-65
2023/07/16 04:40:19;;;;;;;;;9.00;8.33;;;;;19.33;52.31;101012.63;4960878;28;46369;-64
2023/07/16 04:42:45;;;;;;;;;8.00;7.33;;;;;19.35;52.26;101012.59;4960068;28;45368;-64
2023/07/16 04:45:11;;;;;;;;;6.00;6.00;;;;;19.47;52.01;101017.53;4960047;28;45480;-67
2023/07/16 04:47:37;;;;;;;;;7.00;6.33;;;;;19.51;51.92;101018.31;4960118;28;45510;-67
2023/07/16 04:50:02;;;;;;;;;5.33;1.00;;;;;19.46;52.02;101026.41;4965389;28;46006;-65
2023/07/16 04:52:28;;;;;;;;;6.33;6.33;;;;;19.45;52.46;101030.84;4973239;28;45465;-68
2023/07/16 04:54:54;;;;;;;;;7.67;7.00;;;;;19.48;52.17;101028.09;4979350;28;45412;-68
2023/07/16 04:57:19;;;;;;;;;7.67;6.67;;;;;19.49;52.27;101021.88;4970202;28;45402;-68
2023/07/16 04:59:45;;;;;;;;;7.67;6.67;;;;;19.62;51.93;101034.75;4959759;28;46002;-66
2023/07/16 05:02:10;;;;;;;;;11.67;7.00;;;;;19.62;52.14;101045.41;4958580;28;45446;-64
2023/07/16 05:04:36;;;;;;;;;10.00;8.00;;;;;19.47;52.59;101044.09;4959564;28;45177;-64
2023/07/16 05:07:02;;;;;;;;;9.67;8.00;;;;;19.54;52.53;101042.13;4960033;28;45434;-64
2023/07/16 05:09:28;;;;;;;;;12.67;8.67;;;;;19.63;52.33;101037.38;4958312;28;46699;-64
2023/07/16 05:11:54;;;;;;;;;9.33;6.67;;;;;19.77;52.11;101047.63;4979176;28;45538;-64
2023/07/16 05:14:20;;;;;;;;;7.00;6.33;;;;;19.92;52.05;101032.97;4979935;28;45349;-63
2023/07/16 05:16:46;;;;;;;;;9.67;8.33;;;;;20.00;51.56;101040.69;4980411;28;45327;-64
2023/07/16 05:19:11;;;;;;;;;7.33;6.00;;;;;20.10;51.27;101042.16;4975059;28;46030;-67
2023/07/16 05:21:37;;;;;;;;;6.67;6.33;;;;;20.22;51.34;101040.88;4960871;28;45279;-62
2023/07/16 05:24:03;;;;;;;;;11.67;7.00;;;;;20.29;50.89;101045.94;4960687;28;45513;-61
2023/07/16 05:26:29;;;;;;;;;7.67;7.33;;;;;20.32;50.97;101035.19;4960033;28;45496;-61
2023/07/16 05:28:54;;;;;;;;;10.00;7.67;;;;;20.26;51.00;101032.75;4966534;28;46000;-64
2023/07/16 05:31:20;;;;;;;;;9.67;9.00;;;;;20.32;50.90;101027.22;4978656;28;45532;-62
2023/07/16 05:33:45;;;;;;;;;11.67;9.33;;;;;20.45;51.30;101050.72;4979448;28;45495;-64
2023/07/16 05:36:11;;;;;;;;;10.67;9.67;;;;;20.37;51.33;101043.03;4978939;28;45478;-63
2023/07/16 05:38:36;;;;;;;;;12.33;9.00;;;;;20.28;51.49;101038.88;4973306;28;45512;-64
2023/07/16 05:41:03;;;;;;;;;9.33;8.00;;;;;20.39;51.32;101061.59;4957702;28;45609;-63
2023/07/16 05:43:29;;;;;;;;;13.67;9.00;;;;;20.16;52.12;101057.03;4959983;28;45496;-62
2023/07/16 05:45:54;;;;;;;;;12.67;9.33;;;;;20.22;52.10;101054.19;4960219;28;45511;-62
2023/07/16 05:48:20;;;;;;;;;11.00;8.33;;;;;20.07;51.94;101013.00;4958683;28;46469;-64
2023/07/16 05:50:46;;;;;;;;;9.33;7.00;;;;;20.44;51.41;101062.31;4959139;28;45436;-63
2023/07/16 05:53:13;;;;;;;;;15.33;10.33;;;;;20.47;51.64;101054.22;4959050;28;45420;-63
2023/07/16 05:55:41;;;;;;;;;14.33;11.00;;;;;20.50;51.63;101064.75;4960730;28;45490;-63
2023/07/16 05:58:07;;;;;;;;;12.67;10.33;;;;;20.54;51.28;101069.03;4959574;28;46240;-63
2023/07/16 06:00:34;;;;;;;;;11.67;10.33;;;;;20.57;51.57;101071.63;4962898;28;45394;-63
2023/07/16 06:03:01;;;;;;;;;13.67;10.33;;;;;20.65;51.10;101077.56;4961323;28;45290;-63
2023/07/16 06:05:26;;;;;;;;;14.00;10.67;;;;;20.79;50.81;101069.13;4958492;28;45648;-63
2023/07/16 06:07:52;;;;;;;;;16.00;11.00;;;;;20.90;50.76;101072.25;4958461;28;45627;-63
2023/07/16 06:10:18;;;;;;;;;13.00;9.00;;;;;20.85;50.93;101070.69;4958338;28;45533;-63
2023/07/16 06:12:43;;;;;;;;;11.67;10.33;;;;;20.76;51.06;101074.53;4958000;28;46019;-62
2023/07/16 06:15:09;;;;;;;;;12.67;10.33;;;;;20.76;51.17;101074.53;4957204;28;45529;-62
2023/07/16 06:17:35;;;;;;;;;12.33;9.00;;;;;20.85;51.02;101068.88;4957401;28;45615;-63
2023/07/16 06:20:03;;;;;;;;;11.33;10.67;;;;;21.00;51.00;101079.91;4959798;28;45396;-63
2023/07/16 06:22:28;;;;;;;;;12.67;9.33;;;;;21.06;50.89;101074.38;4957874;28;45275;-64
2023/07/16 06:24:54;;;;;;;;;10.67;8.33;;;;;21.15;50.31;101085.56;4958725;28;45385;-64
2023/07/16 06:27:19;;;;;;;;;12.67;10.67;;;;;21.22;50.28;101086.19;4958474;28;45478;-62
2023/07/16 06:29:45;;;;;;;;;14.33;11.00;;;;;21.29;50.15;101081.53;4958423;28;45430;-64
2023/07/16 06:32:10;;;;;;;;;6.33;5.33;;;;;21.39;49.90;101089.13;4958439;28;45234;-65
2023/07/16 06:34:36;;;;;;;;;12.00;9.67;;;;;21.42;49.85;101061.50;4958942;28;45396;-64
2023/07/16 06:37:01;;;;;;;;;13.33;8.00;;;;;21.48;49.90;101090.59;4957323;28;47787;-65
2023/07/16 06:39:27;;;;;;;;;10.00;6.67;;;;;21.56;49.99;101082.31;4959510;28;45273;-65
2023/07/16 06:41:53;;;;;;;;;15.33;11.33;;;;;21.59;49.66;101068.84;4959113;28;45493;-66
2023/07/16 06:44:18;;;;;;;;;13.33;8.67;;;;;21.63;49.39;101053.63;4958684;28;45400;-64
2023/07/16 06:46:44;;;;;;;;;10.33;7.00;;;;;21.97;49.44;101087.81;4957804;28;45401;-65
2023/07/16 06:49:10;;;;;;;;;11.67;8.67;;;;;22.19;48.53;101079.84;4957080;28;45400;-64
2023/07/16 06:51:35;;;;;;;;;9.33;7.00;;;;;22.32;48.49;101091.75;4958426;28;45401;-65
2023/07/16 06:54:01;;;;;;;;;15.33;8.67;;;;;22.38;47.64;101094.19;4957781;28;45400;-65
2023/07/16 06:56:26;;;;;;;;;11.00;7.33;;;;;22.45;48.05;101102.81;4965342;28;47258;-64
2023/07/16 06:58:52;;;;;;;;;9.33;9.33;;;;;22.53;48.21;101099.81;4957837;28;45363;-66
2023/07/16 07:01:18;;;;;;;;;12.33;8.00;;;;;22.54;47.72;101098.84;4972681;28;45462;-66
2023/07/16 07:03:43;;;;;;;;;11.67;8.33;;;;;22.67;46.81;101105.44;4978575;28;45356;-66
2023/07/16 07:06:10;;;;;;;;;11.33;8.67;;;;;22.55;46.91;101080.13;4977067;28;46161;-65
2023/07/16 07:08:36;;;;;;;;;10.67;7.33;;;;;22.71;46.46;101099.03;4977184;28;45506;-63
2023/07/16 07:11:02;;;;;;;;;11.33;8.00;;;;;22.76;46.54;101096.16;4970178;28;45478;-65
2023/07/16 07:13:29;;;;;;;;;12.33;11.00;;;;;22.83;46.40;101110.97;4958798;28;45471;-66
2023/07/16 07:15:55;;;;;;;;;11.67;9.67;;;;;22.74;46.60;101090.03;4976669;28;45413;-63
2023/07/16 07:18:21;;;;;;;;;15.33;11.67;;;;;22.72;46.56;101099.88;4969283;28;45397;-63
2023/07/16 07:20:47;;;;;;;;;14.33;8.33;;;;;22.67;46.81;101083.19;4957449;28;45417;-64
2023/07/16 07:23:13;;;;;;;;;11.00;9.00;;;;;22.73;46.74;101089.16;4958751;28;45473;-64
2023/07/16 07:25:39;;;;;;;;;13.67;8.00;;;;;22.79;46.57;101099.56;4976498;28;46572;-64
2023/07/16 07:28:04;;;;;;;;;7.33;7.33;;;;;22.78;46.50;101099.59;4966366;28;45171;-64
2023/07/16 07:30:30;;;;;;;;;9.00;7.33;;;;;22.78;46.42;101103.16;4958152;28;45338;-64
2023/07/16 07:32:56;;;;;;;;;9.33;8.00;;;;;22.84;46.27;101108.22;4958472;28;45324;-63
2023/07/16 07:35:22;;;;;;;;;11.00;7.33;;;;;22.86;46.12;101101.03;4958609;28;45983;-64
2023/07/16 07:37:47;;;;;;;;;7.67;7.33;;;;;22.98;45.83;101105.00;4959208;28;45414;-65
2023/07/16 07:40:14;;;;;;;;;12.33;8.00;;;;;23.07;45.58;101093.91;4958511;28;45496;-63
2023/07/16 07:42:39;;;;;;;;;11.67;8.00;;;;;23.02;45.28;101103.06;4959173;28;45528;-64
2023/07/16 07:45:05;;;;;;;;;11.33;6.33;;;;;22.94;45.68;101100.69;4958148;28;45499;-65
2023/07/16 07:47:31;;;;;;;;;12.00;8.33;;;;;22.90;45.92;101104.44;4958697;28;45896;-64
2023/07/16 07:49:57;;;;;;;;;10.00;6.33;;;;;22.91;45.39;101083.94;4958564;28;45457;-64
2023/07/16 07:52:26;;;;;;;;;10.33;8.00;;;;;23.04;45.03;101096.72;4957879;28;45422;-63
2023/07/16 07:54:52;;;;;;;;;8.67;8.67;;;;;23.07;45.03;101099.25;4957708;28;46878;-64
2023/07/16 07:57:19;;;;;;;;;14.67;9.67;;;;;23.09;45.19;101099.19;4958248;28;45383;-64
2023/07/16 07:59:45;;;;;;;;;11.00;8.00;;;;;23.18;44.81;101109.47;4958715;28;45422;-63
2023/07/16 08:02:11;;;;;;;;;10.67;8.33;;;;;23.20;44.65;101102.22;4959975;28;45431;-63
2023/07/16 08:04:37;;;;;;;;;12.00;9.00;;;;;23.31;44.44;101106.25;4957863;28;45436;-63
2023/07/16 08:07:03;;;;;;;;;8.33;8.00;;;;;23.23;44.12;101110.13;4957320;28;45576;-63
2023/07/16 08:09:29;;;;;;;;;15.00;7.00;;;;;23.14;44.46;101099.84;4957663;28;45287;-64
2023/07/16 08:11:55;;;;;;;;;6.00;5.33;;;;;23.22;44.13;101095.00;4956156;28;45599;-64
2023/07/16 08:14:21;;;;;;;;;8.00;6.33;;;;;23.34;43.73;101111.44;4957171;28;46317;-64
2023/07/16 08:16:47;;;;;;;;;6.33;6.00;;;;;23.27;44.06;101106.38;4955947;28;45523;-63
2023/07/16 08:19:13;;;;;;;;;7.67;7.00;;;;;23.35;44.03;101102.47;4957843;28;45666;-64
2023/07/16 08:21:38;;;;;;;;;10.67;7.00;;;;;23.47;43.36;101112.63;4962193;28;45596;-65
2023/07/16 08:24:07;;;;;;;;;10.33;6.33;;;;;23.47;42.91;101101.94;4978102;28;46151;-65
2023/07/16 08:26:33;;;;;;;;;10.67;7.00;;;;;23.50;42.55;101102.66;4978723;28;45454;-64
2023/07/16 08:29:00;;;;;;;;;4.00;3.33;;;;;23.53;42.12;101111.47;4971769;28;45324;-65
2023/07/16 08:31:26;;;;;;;;;8.33;6.00;;;;;23.56;42.33;101114.84;4957114;28;45559;-64
2023/07/16 08:33:51;;;;;;;;;5.00;5.00;;;;;23.64;42.65;101109.16;4957245;28;46134;-64
2023/07/16 08:36:17;;;;;;;;;5.00;5.00;;;;;23.68;42.18;101100.03;4958639;28;45384;-63
2023/07/16 08:38:42;;;;;;;;;10.67;7.00;;;;;23.64;42.00;101094.00;4961850;28;45646;-64
2023/07/16 08:41:08;;;;;;;;;7.33;6.00;;;;;23.80;41.87;101103.97;4960471;28;45301;-64
2023/07/16 08:43:34;;;;;;;;;7.67;5.33;;;;;23.87;41.82;101106.31;4959265;28;46087;-63
2023/07/16 08:46:01;;;;;;;;;7.67;6.33;;;;;23.92;41.47;101114.13;4961265;28;45448;-63
2023/07/16 08:48:28;;;;;;;;;8.67;7.33;;;;;23.88;41.62;101105.38;4960465;28;45756;-63
2023/07/16 08:50:55;;;;;;;;;9.67;7.33;;;;;23.95;41.45;101108.63;4961084;28;45447;-64
2023/07/16 08:53:22;;;;;;;;;8.00;6.67;;;;;23.93;41.38;101105.16;4960237;28;45364;-65
2023/07/16 08:55:48;;;;;;;;;7.67;4.67;;;;;23.93;41.50;101097.13;4960466;28;45386;-65
2023/07/16 08:58:17;;;;;;;;;10.67;7.33;;;;;24.01;41.58;101107.44;4958865;28;45244;-66
2023/07/16 09:00:44;;;;;;;;;9.33;8.00;;;;;24.10;42.11;101118.56;4961231;28;45602;-66
2023/07/16 09:03:18;;;;;;;;;7.67;4.00;;;;;24.15;40.88;101113.00;4960054;28;45472;-64
2023/07/16 09:05:45;;;;;;;;;9.00;5.67;;;;;24.19;40.48;101124.44;4961795;28;45179;-65
2023/07/16 09:08:11;;;;;;;;;7.67;6.67;;;;;24.23;40.35;101112.66;4961849;28;45555;-64
2023/07/16 09:10:39;;;;;;;;;8.00;7.00;;;;;24.19;40.52;101119.06;4960788;28;45448;-63
2023/07/16 09:13:05;;;;;;;;;6.00;4.67;;;;;24.35;40.15;101109.34;4960379;28;46026;-65
2023/07/16 09:15:30;;;;;;;;;8.33;5.00;;;;;24.49;40.30;101112.25;4960202;28;45362;-64
2023/07/16 09:17:56;;;;;;;;;8.00;6.00;;;;;24.49;40.38;101117.59;4960256;28;45492;-63
2023/07/16 09:20:23;;;;;;;;;7.33;5.00;;;;;24.34;39.82;101103.13;4976318;28;45428;-65
2023/07/16 09:22:49;;;;;;;;;7.00;4.67;;;;;24.22;40.28;101111.75;4979464;28;45433;-64
2023/07/16 09:25:15;;;;;;;;;6.67;5.00;;;;;24.17;40.87;101110.25;4968586;28;45473;-68
2023/07/16 09:27:40;;;;;;;;;7.67;7.00;;;;;24.28;39.92;101110.59;4979688;28;45704;-66
2023/07/16 09:30:14;;;;;;;;;5.50;5.50;;;;;24.28;40.34;101103.44;4981186;28;45381;-67
2023/07/16 09:32:40;;;;;;;;;7.33;5.00;;;;;24.41;39.89;101109.03;4979474;28;45442;-67
2023/07/16 09:35:12;;;;;;;;;7.00;5.33;;;;;24.47;38.85;101108.78;4980143;28;45281;-67
2023/07/16 09:37:38;;;;;;;;;5.00;4.33;;;;;24.43;39.38;101120.53;4978186;28;45396;-67
2023/07/16 09:40:09;;;;;;;;;8.00;5.75;;;;;24.61;38.91;101109.91;4978999;28;45612;-67
2023/07/16 09:42:42;;;;;;;;;7.00;5.50;;;;;24.79;39.83;101122.31;4980247;28;45379;-66
2023/07/16 09:45:17;;;;;;;;;5.67;5.00;;;;;24.95;39.58;101101.84;4980195;28;45738;-67
2023/07/16 09:47:47;;;;;;;;;5.00;4.75;;;;;25.13;38.75;101109.88;4981449;28;45466;-66
2023/07/16 09:50:17;;;;;;;;;5.25;5.25;;;;;25.21;37.78;101096.94;4981723;28;45513;-68
2023/07/16 09:52:43;;;;;;;;;7.00;5.00;;;;;25.41;38.50;101117.31;4979730;28;45395;-67
2023/07/16 09:55:10;;;;;;;;;9.33;5.67;;;;;25.41;37.86;101111.94;4980566;28;45781;-64
2023/07/16 09:57:38;;;;;;;;;12.00;5.33;;;;;25.43;37.91;101122.59;4969460;28;45296;-67
2023/07/16 10:00:12;;;;;;;;;6.00;5.50;;;;;25.25;37.86;101111.03;4959437;28;45263;-64
2023/07/16 10:02:39;;;;;;;;;5.00;3.50;;;;;25.14;38.50;101123.16;4959362;28;45383;-66
2023/07/16 10:05:31;;;;;;;;;8.50;6.75;;;;;24.95;38.36;101122.41;4968921;28;45581;-65
2023/07/16 10:08:00;;;;;;;;;5.33;5.33;;;;;24.76;39.02;101118.00;4963765;28;45397;-68
2023/07/16 10:10:40;;;;;;;;;8.25;6.00;;;;;24.74;39.25;101119.00;4979188;28;45435;-65
2023/07/16 10:13:07;;;;;;;;;11.00;6.00;;;;;24.66;39.43;101108.69;4993757;28;47281;-64
2023/07/16 10:15:33;;;;;;;;;7.25;5.00;;;;;24.74;39.56;101100.28;4978629;28;45348;-66
2023/07/16 10:17:59;;;;;;;;;9.33;6.00;;;;;24.85;38.83;101097.06;4977102;28;45558;-67
2023/07/16 10:20:42;;;;;;;;;5.25;4.00;;;;;24.89;38.97;101110.22;4976909;28;45494;-67
2023/07/16 10:23:12;;;;;;;;;8.75;4.50;;;;;24.90;38.23;101090.50;4978243;28;45729;-66
2023/07/16 10:25:38;;;;;;;;;7.00;5.00;;;;;24.90;37.66;101082.44;4978436;28;45444;-67
2023/07/16 10:28:04;;;;;;;;;10.00;7.00;;;;;24.74;38.13;101086.88;4975913;28;45630;-67
2023/07/16 10:30:30;;;;;;;;;6.67;5.33;;;;;24.86;37.41;101112.16;4977297;28;45754;-66
2023/07/16 10:32:56;;;;;;;;;4.75;4.75;;;;;24.80;36.88;101099.97;4978041;28;46051;-66
2023/07/16 10:35:22;;;;;;;;;5.25;5.00;;;;;24.85;36.59;101092.56;4977231;28;45503;-67
2023/07/16 10:37:48;;;;;;;;;5.00;3.75;;;;;24.96;36.76;101090.19;4978031;28;45368;-67
2023/07/16 10:40:16;;;;;;;;;7.00;4.75;;;;;24.94;35.33;101084.03;4971285;28;45485;-67
2023/07/16 10:42:43;;;;;;;;;5.75;3.75;;;;;25.14;35.53;101093.69;4977991;28;46268;-65
2023/07/16 10:45:09;;;;;;;;;4.50;4.00;;;;;25.20;36.17;101089.88;4977354;28;45395;-66
2023/07/16 10:47:50;;;;;;;;;5.00;4.25;;;;;25.33;35.91;101092.75;4978358;28;45411;-66
2023/07/16 10:50:17;;;;;;;;;7.25;5.50;;;;;25.38;35.31;101098.72;4964673;28;45368;-66
2023/07/16 10:52:43;;;;;;;;;5.00;5.00;;;;;25.43;35.44;101091.28;4959045;28;45704;-67
2023/07/16 10:55:08;;;;;;;;;5.25;4.25;;;;;25.39;35.68;101079.88;4959969;28;45278;-66
2023/07/16 10:57:35;;;;;;;;;8.75;3.75;;;;;25.53;35.50;101099.69;4958969;28;45308;-64
2023/07/16 11:00:01;;;;;;;;;4.25;4.00;;;;;25.65;34.80;101085.63;4969008;28;45468;-65
2023/07/16 11:02:29;;;;;;;;;9.50;3.25;;;;;25.78;33.87;101092.00;4977480;28;45462;-65
2023/07/16 11:04:57;;;;;;;;;6.00;4.25;;;;;25.89;34.24;101086.09;4977788;28;45482;-64
2023/07/16 11:07:23;;;;;;;;;5.00;3.75;;;;;25.94;34.27;101080.47;4978489;28;45293;-65
2023/07/16 11:09:49;;;;;;;;;5.00;5.00;;;;;26.01;34.00;101082.69;4967112;28;45660;-66
2023/07/16 11:12:17;;;;;;;;;8.00;6.00;;;;;26.02;33.84;101072.81;4958610;28;46191;-66
2023/07/16 11:14:50;;;;;;;;;3.75;3.25;;;;;26.06;33.61;101078.91;4959514;28;45429;-65
2023/07/16 11:17:17;;;;;;;;;7.25;6.75;;;;;25.83;33.06;101067.59;4961013;28;45523;-66
2023/07/16 11:19:49;;;;;;;;;4.50;3.00;;;;;25.80;33.49;101079.38;4961992;28;45483;-66